首页
METAR-TAF:

METAR-TAF

机场 :

Savannah/Hilton Head International Airport

薩凡納, 喬治亞, 美国

纬度: 32-07-08N, 经度: 081-12-08W, 海拔: 15米

当前天气观测

该预报发布于52分钟前的01:53 UTC
风速10节,风向西
温度 22°C
湿度 88%
气压 1014 hPa
能見度: 16.1公里
多云层高于15000英尺

METAR: KSAV 210153Z 28010KT 10SM BKN150 22/20 A2995 RMK AO2 SLP140 T02220200

时间: 22:45 (02:45 UTC)

预报

该预报发布于3小时和24分钟前的23:21 UTC
预报有效从21日的 00点(UTC)到 21日的 24点(UTC)
风速7节,风向西
能見度: 10公里
散云层高于8000英尺
多云层高于20000英尺
从 21日的 0600点(UTC)
风速11节,风向西北,有时为17节阵风
能見度: 10公里
天空无云
从 21日的 1200点(UTC)
风速12节,风向,有时为20节阵风
能見度: 10公里
天空无云
从 21日的 1900点(UTC)
风速8节,风向
能見度: 10公里
天空无云

TAF: KSAV 202321Z 2100/2124 26007KT P6SM SCT080 BKN200 FM210600 31011G17KT P6SM SKC FM211200 35012G20KT P6SM SKC FM211900 36008KT P6SM SKC

超过4000个机场的气象观测和天气预报(METAR&TAF报告)。

可查询的气象台以黄色和红色小点在地图上表示。

将鼠标移到小点上方,可查看气象台名称。

然后点击查看天气观测和预报。

如需切换地图:点击带黑十字的绿色按钮放大地图;点击带横线的绿色按钮缩小地图;或者点击绿色箭头查看邻近地区的地图。


METAR-TAF: